Lotheni — ZR8530 — position and weather

sailwx.info

Track history (hours):
 
Tides and Currents Weather Stations Pressure Air Temp Water Temp Dewpoint Dewpoint Depression Visibility Wind Speed Wind Dir Waves Ship Positions

Lotheni

Last reported at 2015-May-27 00:31 UTC. Time now 2015-May-27 05:55 UTC.
Position S 29°52' E 031°02'.

Type: Tug. MMSI: 601135800.

Date/timePositionNaut miles runAvg speedWind from/ knotsBaromVisibWave heightAir tempDewpointWater temp
2015-May-27 00:31S 29°52' E 031°02'1 0.2
2015-May-26 21:24S 29°52' E 031°02'0 0.0
2015-May-26 20:06S 29°52' E 031°02'0 0.4
2015-May-26 19:21S 29°52' E 031°02'1 0.7
2015-May-26 18:25S 29°53' E 031°02'1 0.2
2015-May-26 13:28S 29°52' E 031°02'0 0.0
2015-May-26 12:16S 29°52' E 031°02'0 0.0
2015-May-26 11:10S 29°52' E 031°02'0 0.0
2015-May-26 10:10S 29°52' E 031°02'0 0.0
2015-May-26 09:16S 29°52' E 031°02'0 0.0
2015-May-26 03:03S 29°52' E 031°02'1 0.9
2015-May-26 02:28S 29°52' E 031°02'1 0.1
2015-May-25 22:26S 29°52' E 031°02'1 1.0
2015-May-25 21:30S 29°53' E 031°02'1 0.3
2015-May-25 18:14S 29°53' E 031°03'1 0.2
2015-May-25 13:23S 29°52' E 031°02'1 0.6
2015-May-25 12:29S 29°52' E 031°02'1 0.5
2015-May-25 10:31S 29°53' E 031°02'1 0.9
2015-May-25 09:28S 29°52' E 031°02'0 0.0
2015-May-25 08:33S 29°52' E 031°02'1 0.5
2015-May-25 07:30S 29°52' E 031°02'0 0.3
2015-May-25 06:31S 29°52' E 031°02'0 0.4
2015-May-25 05:33S 29°52' E 031°02'1 0.1
2015-May-25 00:32S 29°52' E 031°02'0 0.0
2015-May-24 23:32S 29°52' E 031°02'0 0.0
2015-May-24 22:14S 29°52' E 031°02'0 0.0
2015-May-24 21:32S 29°52' E 031°02'0 0.0
2015-May-24 19:08S 29°52' E 031°02'1 0.8
2015-May-24 17:32S 29°53' E 031°03'0 0.1
2015-May-24 14:33S 29°53' E 031°03'1 0.2
2015-May-24 11:33S 29°52' E 031°02'1 0.5
2015-May-24 10:33S 29°53' E 031°03'1 0.2
2015-May-24 06:16S 29°53' E 031°01'0 0.6
2015-May-24 05:33S 29°53' E 031°02'0 0.1
2015-May-24 00:30S 29°53' E 031°01'0 0.2
2015-May-23 23:30S 29°53' E 031°01'1 0.6
2015-May-23 21:32S 29°52' E 031°02'0 0.5
2015-May-23 20:27S 29°52' E 031°02'1 1.0
2015-May-23 19:32S 29°53' E 031°03'1 0.6
2015-May-23 18:06S 29°52' E 031°02'1 1.0
2015-May-23 17:23S 29°53' E 031°01'1 0.5
2015-May-23 15:06S 29°52' E 031°02'0 0.0
2015-May-23 13:18S 29°52' E 031°02'0 0.0
2015-May-23 12:24S 29°52' E 031°02'0 0.0
2015-May-23 09:33S 29°52' E 031°02'0 0.0
2015-May-23 08:15S 29°52' E 031°02'0 0.0
2015-May-23 07:27S 29°52' E 031°02'0 0.0
2015-May-23 04:33S 29°52' E 031°02'0 0.0
2015-May-23 03:21S 29°52' E 031°02'0 0.0
2015-May-23 02:03S 29°52' E 031°02'0 0.0
2015-May-23 01:03S 29°52' E 031°02'0 0.0
2015-May-23 00:27S 29°52' E 031°02'1 0.6
2015-May-22 23:28S 29°52' E 031°01'1 0.9
2015-May-22 22:33S 29°53' E 031°02'1 0.2
2015-May-22 18:14S 29°52' E 031°03'1 0.3
2015-May-22 13:28S 29°52' E 031°02'0 0.4
2015-May-22 12:20S 29°53' E 031°02'1 0.3
2015-May-22 09:32S 29°52' E 031°02'1 0.8
2015-May-22 08:32S 29°53' E 031°02'1 0.6
2015-May-22 07:33S 29°53' E 031°01'1 1.3
2015-May-22 06:28S 29°52' E 031°03'1 1.1
2015-May-22 05:18S 29°53' E 031°01'2 0.3
2015-May-22 00:30S 29°53' E 031°03'2 1.9
2015-May-21 23:34S 29°52' E 031°01'1 0.2
2015-May-21 20:24S 29°52' E 031°02'0 0.0
2015-May-21 14:20S 29°52' E 031°02'0 0.0
2015-May-21 11:11S 29°52' E 031°02'0 0.0
2015-May-21 09:11S 29°52' E 031°02'0 0.0
2015-May-21 08:23S 29°52' E 031°02'1 1.3
2015-May-21 07:29S 29°52' E 031°01'1 0.8
2015-May-21 06:07S 29°52' E 031°02'0 0.1
2015-May-21 05:31S 29°52' E 031°02'1 0.1
2015-May-20 22:17S 29°52' E 031°01'1 1.3
2015-May-20 21:23S 29°53' E 031°00'2 2.5
2015-May-20 20:30S 29°53' E 031°03'0 0.0
2015-May-20 19:33S 29°53' E 031°03'1 0.3
2015-May-20 14:27S 29°52' E 031°02'1 0.6
2015-May-20 13:29S 29°52' E 031°02'1 0.2
2015-May-20 10:15S 29°53' E 031°02'1 0.2
2015-May-20 07:13S 29°52' E 031°02'1 1.2
2015-May-20 06:13S 29°52' E 031°03'1 0.4
2015-May-20 02:27S 29°52' E 031°02'1 1.4
2015-May-20 01:24S 29°53' E 031°03'2 2.0
2015-May-20 00:32S 29°53' E 031°01'1 0.2
2015-May-19 19:09S 29°52' E 031°02'0 0.4
2015-May-19 18:29S 29°52' E 031°02'1 0.5
2015-May-19 17:24S 29°53' E 031°03'1 0.5
2015-May-19 15:05S 29°52' E 031°02'0 0.0
2015-May-19 14:29S 29°52' E 031°02'0 0.0
2015-May-19 13:29S 29°52' E 031°02'1 0.7
2015-May-19 12:28S 29°52' E 031°02'1 0.7
2015-May-19 11:24S 29°52' E 031°02'2 0.9
2015-May-19 09:22S 29°53' E 031°00'2 1.8
2015-May-19 08:29S 29°52' E 031°02'1 0.3
2015-May-19 06:17S 29°53' E 031°01'1 0.2
2015-May-19 02:23S 29°52' E 031°02'1 0.8
2015-May-19 01:30S 29°53' E 031°02'1 0.4
2015-May-18 22:20S 29°53' E 031°03'2 2.0
2015-May-18 21:31S 29°53' E 031°01'1 1.3
2015-May-18 20:29S 29°52' E 031°03'1 0.9
2015-May-18 19:26S 29°53' E 031°02'1 0.4
2015-May-18 17:21S 29°53' E 031°02'  
Track history (hours):
 
Tides and Currents Weather Stations Pressure Air Temp Water Temp Dewpoint Dewpoint Depression Visibility Wind Speed Wind Dir Waves Ship Positions

Lotheni

Last reported at 2015-May-27 00:31 UTC. Time now 2015-May-27 05:55 UTC.
Position S 29°52' E 031°02'.

Type: Tug. MMSI: 601135800.

Date/timePositionNaut miles runAvg speedWind from/ knotsBaromVisibWave heightAir tempDewpointWater temp
2015-May-27 00:31S 29°52' E 031°02'1 0.2
2015-May-26 21:24S 29°52' E 031°02'0 0.0
2015-May-26 20:06S 29°52' E 031°02'0 0.4
2015-May-26 19:21S 29°52' E 031°02'1 0.7
2015-May-26 18:25S 29°53' E 031°02'1 0.2
2015-May-26 13:28S 29°52' E 031°02'0 0.0
2015-May-26 12:16S 29°52' E 031°02'0 0.0
2015-May-26 11:10S 29°52' E 031°02'0 0.0
2015-May-26 10:10S 29°52' E 031°02'0 0.0
2015-May-26 09:16S 29°52' E 031°02'0 0.0
2015-May-26 03:03S 29°52' E 031°02'1 0.9
2015-May-26 02:28S 29°52' E 031°02'1 0.1
2015-May-25 22:26S 29°52' E 031°02'1 1.0
2015-May-25 21:30S 29°53' E 031°02'1 0.3
2015-May-25 18:14S 29°53' E 031°03'1 0.2
2015-May-25 13:23S 29°52' E 031°02'1 0.6
2015-May-25 12:29S 29°52' E 031°02'1 0.5
2015-May-25 10:31S 29°53' E 031°02'1 0.9
2015-May-25 09:28S 29°52' E 031°02'0 0.0
2015-May-25 08:33S 29°52' E 031°02'1 0.5
2015-May-25 07:30S 29°52' E 031°02'0 0.3
2015-May-25 06:31S 29°52' E 031°02'0 0.4
2015-May-25 05:33S 29°52' E 031°02'1 0.1
2015-May-25 00:32S 29°52' E 031°02'0 0.0
2015-May-24 23:32S 29°52' E 031°02'0 0.0
2015-May-24 22:14S 29°52' E 031°02'0 0.0
2015-May-24 21:32S 29°52' E 031°02'0 0.0
2015-May-24 19:08S 29°52' E 031°02'1 0.8
2015-May-24 17:32S 29°53' E 031°03'0 0.1
2015-May-24 14:33S 29°53' E 031°03'1 0.2
2015-May-24 11:33S 29°52' E 031°02'1 0.5
2015-May-24 10:33S 29°53' E 031°03'1 0.2
2015-May-24 06:16S 29°53' E 031°01'0 0.6
2015-May-24 05:33S 29°53' E 031°02'0 0.1
2015-May-24 00:30S 29°53' E 031°01'0 0.2
2015-May-23 23:30S 29°53' E 031°01'1 0.6
2015-May-23 21:32S 29°52' E 031°02'0 0.5
2015-May-23 20:27S 29°52' E 031°02'1 1.0
2015-May-23 19:32S 29°53' E 031°03'1 0.6
2015-May-23 18:06S 29°52' E 031°02'1 1.0
2015-May-23 17:23S 29°53' E 031°01'1 0.5
2015-May-23 15:06S 29°52' E 031°02'0 0.0
2015-May-23 13:18S 29°52' E 031°02'0 0.0
2015-May-23 12:24S 29°52' E 031°02'0 0.0
2015-May-23 09:33S 29°52' E 031°02'0 0.0
2015-May-23 08:15S 29°52' E 031°02'0 0.0
2015-May-23 07:27S 29°52' E 031°02'0 0.0
2015-May-23 04:33S 29°52' E 031°02'0 0.0
2015-May-23 03:21S 29°52' E 031°02'0 0.0
2015-May-23 02:03S 29°52' E 031°02'0 0.0
2015-May-23 01:03S 29°52' E 031°02'0 0.0
2015-May-23 00:27S 29°52' E 031°02'1 0.6
2015-May-22 23:28S 29°52' E 031°01'1 0.9
2015-May-22 22:33S 29°53' E 031°02'1 0.2
2015-May-22 18:14S 29°52' E 031°03'1 0.3
2015-May-22 13:28S 29°52' E 031°02'0 0.4
2015-May-22 12:20S 29°53' E 031°02'1 0.3
2015-May-22 09:32S 29°52' E 031°02'1 0.8
2015-May-22 08:32S 29°53' E 031°02'1 0.6
2015-May-22 07:33S 29°53' E 031°01'1 1.3
2015-May-22 06:28S 29°52' E 031°03'1 1.1
2015-May-22 05:18S 29°53' E 031°01'2 0.3
2015-May-22 00:30S 29°53' E 031°03'2 1.9
2015-May-21 23:34S 29°52' E 031°01'1 0.2
2015-May-21 20:24S 29°52' E 031°02'0 0.0
2015-May-21 14:20S 29°52' E 031°02'0 0.0
2015-May-21 11:11S 29°52' E 031°02'0 0.0
2015-May-21 09:11S 29°52' E 031°02'0 0.0
2015-May-21 08:23S 29°52' E 031°02'1 1.3
2015-May-21 07:29S 29°52' E 031°01'1 0.8
2015-May-21 06:07S 29°52' E 031°02'0 0.1
2015-May-21 05:31S 29°52' E 031°02'1 0.1
2015-May-20 22:17S 29°52' E 031°01'1 1.3
2015-May-20 21:23S 29°53' E 031°00'2 2.5
2015-May-20 20:30S 29°53' E 031°03'0 0.0
2015-May-20 19:33S 29°53' E 031°03'1 0.3
2015-May-20 14:27S 29°52' E 031°02'1 0.6
2015-May-20 13:29S 29°52' E 031°02'1 0.2
2015-May-20 10:15S 29°53' E 031°02'1 0.2
2015-May-20 07:13S 29°52' E 031°02'1 1.2
2015-May-20 06:13S 29°52' E 031°03'1 0.4
2015-May-20 02:27S 29°52' E 031°02'1 1.4
2015-May-20 01:24S 29°53' E 031°03'2 2.0
2015-May-20 00:32S 29°53' E 031°01'1 0.2
2015-May-19 19:09S 29°52' E 031°02'0 0.4
2015-May-19 18:29S 29°52' E 031°02'1 0.5
2015-May-19 17:24S 29°53' E 031°03'1 0.5
2015-May-19 15:05S 29°52' E 031°02'0 0.0
2015-May-19 14:29S 29°52' E 031°02'0 0.0
2015-May-19 13:29S 29°52' E 031°02'1 0.7
2015-May-19 12:28S 29°52' E 031°02'1 0.7
2015-May-19 11:24S 29°52' E 031°02'2 0.9
2015-May-19 09:22S 29°53' E 031°00'2 1.8
2015-May-19 08:29S 29°52' E 031°02'1 0.3
2015-May-19 06:17S 29°53' E 031°01'1 0.2
2015-May-19 02:23S 29°52' E 031°02'1 0.8
2015-May-19 01:30S 29°53' E 031°02'1 0.4
2015-May-18 22:20S 29°53' E 031°03'2 2.0
2015-May-18 21:31S 29°53' E 031°01'1 1.3
2015-May-18 20:29S 29°52' E 031°03'1 0.9
2015-May-18 19:26S 29°53' E 031°02'1 0.4
2015-May-18 17:21S 29°53' E 031°02'  

Dump ship's entire track history